sensor_id;sensor_type;location;lat;lon;timestamp;temperature;humidity
49489;SHT31;35382;51.484;11.476;2022-07-29T00:01:36;16.71;56.98
49489;SHT31;35382;51.484;11.476;2022-07-29T00:03:17;16.60;56.83
49489;SHT31;35382;51.484;11.476;2022-07-29T00:04:58;16.61;56.87
49489;SHT31;35382;51.484;11.476;2022-07-29T00:06:39;16.68;56.70
49489;SHT31;35382;51.484;11.476;2022-07-29T00:08:20;16.67;56.68
49489;SHT31;35382;51.484;11.476;2022-07-29T00:10:03;16.70;56.77
49489;SHT31;35382;51.484;11.476;2022-07-29T00:11:44;16.73;56.47
49489;SHT31;35382;51.484;11.476;2022-07-29T00:13:25;16.70;56.61
49489;SHT31;35382;51.484;11.476;2022-07-29T00:15:06;16.64;56.76
49489;SHT31;35382;51.484;11.476;2022-07-29T00:16:47;16.57;56.99
49489;SHT31;35382;51.484;11.476;2022-07-29T00:18:28;16.54;57.30
49489;SHT31;35382;51.484;11.476;2022-07-29T00:20:09;16.57;57.25
49489;SHT31;35382;51.484;11.476;2022-07-29T00:21:50;16.59;57.47
49489;SHT31;35382;51.484;11.476;2022-07-29T00:23:31;16.60;57.15
49489;SHT31;35382;51.484;11.476;2022-07-29T00:25:12;16.60;57.04
49489;SHT31;35382;51.484;11.476;2022-07-29T00:26:54;16.61;57.25
49489;SHT31;35382;51.484;11.476;2022-07-29T00:28:35;16.60;57.13
49489;SHT31;35382;51.484;11.476;2022-07-29T00:30:16;16.51;57.04
49489;SHT31;35382;51.484;11.476;2022-07-29T00:31:57;16.56;56.90
49489;SHT31;35382;51.484;11.476;2022-07-29T00:33:38;16.54;57.12
49489;SHT31;35382;51.484;11.476;2022-07-29T00:35:19;16.57;57.09
49489;SHT31;35382;51.484;11.476;2022-07-29T00:37:18;16.57;56.85
49489;SHT31;35382;51.484;11.476;2022-07-29T00:38:59;16.60;57.19
49489;SHT31;35382;51.484;11.476;2022-07-29T00:40:41;16.44;57.04
49489;SHT31;35382;51.484;11.476;2022-07-29T00:42:22;16.43;57.62
49489;SHT31;35382;51.484;11.476;2022-07-29T00:44:03;16.44;57.02
49489;SHT31;35382;51.484;11.476;2022-07-29T00:45:44;16.47;57.50
49489;SHT31;35382;51.484;11.476;2022-07-29T00:47:25;16.41;57.26
49489;SHT31;35382;51.484;11.476;2022-07-29T00:49:06;16.44;57.77
49489;SHT31;35382;51.484;11.476;2022-07-29T00:50:49;16.40;57.58
49489;SHT31;35382;51.484;11.476;2022-07-29T00:52:31;16.34;57.96
49489;SHT31;35382;51.484;11.476;2022-07-29T00:54:12;16.27;58.07
49489;SHT31;35382;51.484;11.476;2022-07-29T00:55:54;16.39;57.61
49489;SHT31;35382;51.484;11.476;2022-07-29T00:57:36;16.33;57.64
49489;SHT31;35382;51.484;11.476;2022-07-29T00:59:17;16.34;57.98
49489;SHT31;35382;51.484;11.476;2022-07-29T01:00:58;16.27;58.25
49489;SHT31;35382;51.484;11.476;2022-07-29T01:02:39;16.19;58.01
49489;SHT31;35382;51.484;11.476;2022-07-29T01:04:21;16.23;58.18
49489;SHT31;35382;51.484;11.476;2022-07-29T01:06:02;16.21;58.24
49489;SHT31;35382;51.484;11.476;2022-07-29T01:07:44;16.09;58.21
49489;SHT31;35382;51.484;11.476;2022-07-29T01:09:26;16.16;58.26
49489;SHT31;35382;51.484;11.476;2022-07-29T01:11:07;16.23;58.08
49489;SHT31;35382;51.484;11.476;2022-07-29T01:12:50;16.24;57.96
49489;SHT31;35382;51.484;11.476;2022-07-29T01:14:31;16.21;57.78
49489;SHT31;35382;51.484;11.476;2022-07-29T01:16:18;16.26;57.85
49489;SHT31;35382;51.484;11.476;2022-07-29T01:20:07;16.27;57.96
49489;SHT31;35382;51.484;11.476;2022-07-29T01:21:54;16.29;57.77
49489;SHT31;35382;51.484;11.476;2022-07-29T01:23:52;16.23;57.82
49489;SHT31;35382;51.484;11.476;2022-07-29T01:29:26;16.19;58.27
49489;SHT31;35382;51.484;11.476;2022-07-29T01:31:10;16.16;58.51
49489;SHT31;35382;51.484;11.476;2022-07-29T01:32:58;16.12;58.57
49489;SHT31;35382;51.484;11.476;2022-07-29T01:34:48;16.07;58.52
49489;SHT31;35382;51.484;11.476;2022-07-29T01:36:35;16.10;58.31
49489;SHT31;35382;51.484;11.476;2022-07-29T01:38:23;16.05;58.56
49489;SHT31;35382;51.484;11.476;2022-07-29T01:40:16;15.93;58.94
49489;SHT31;35382;51.484;11.476;2022-07-29T01:43:57;15.96;59.38
49489;SHT31;35382;51.484;11.476;2022-07-29T01:46:17;15.89;59.32
49489;SHT31;35382;51.484;11.476;2022-07-29T01:48:05;15.79;59.37
49489;SHT31;35382;51.484;11.476;2022-07-29T01:49:49;15.81;59.21
49489;SHT31;35382;51.484;11.476;2022-07-29T01:51:35;15.89;59.16
49489;SHT31;35382;51.484;11.476;2022-07-29T01:53:26;15.99;58.88
49489;SHT31;35382;51.484;11.476;2022-07-29T01:55:13;15.87;59.22
49489;SHT31;35382;51.484;11.476;2022-07-29T01:56:56;15.87;59.22
49489;SHT31;35382;51.484;11.476;2022-07-29T01:58:40;15.89;59.34
49489;SHT31;35382;51.484;11.476;2022-07-29T02:00:22;15.93;58.99
49489;SHT31;35382;51.484;11.476;2022-07-29T02:02:06;16.00;58.85
49489;SHT31;35382;51.484;11.476;2022-07-29T02:03:50;15.96;59.07
49489;SHT31;35382;51.484;11.476;2022-07-29T02:05:32;15.96;59.03
49489;SHT31;35382;51.484;11.476;2022-07-29T02:07:18;15.92;59.41
49489;SHT31;35382;51.484;11.476;2022-07-29T02:09:00;15.93;59.02
49489;SHT31;35382;51.484;11.476;2022-07-29T02:10:44;15.87;59.47
49489;SHT31;35382;51.484;11.476;2022-07-29T02:12:27;15.87;59.16
49489;SHT31;35382;51.484;11.476;2022-07-29T02:14:10;15.87;59.36
49489;SHT31;35382;51.484;11.476;2022-07-29T02:15:53;15.90;59.45
49489;SHT31;35382;51.484;11.476;2022-07-29T02:17:46;15.89;59.33
49489;SHT31;35382;51.484;11.476;2022-07-29T02:19:31;15.92;59.41
49489;SHT31;35382;51.484;11.476;2022-07-29T02:21:14;15.83;59.70
49489;SHT31;35382;51.484;11.476;2022-07-29T02:23:00;15.87;59.60
49489;SHT31;35382;51.484;11.476;2022-07-29T02:24:41;15.86;59.38
49489;SHT31;35382;51.484;11.476;2022-07-29T02:26:25;15.81;59.59
49489;SHT31;35382;51.484;11.476;2022-07-29T02:28:07;15.86;59.62
49489;SHT31;35382;51.484;11.476;2022-07-29T02:29:48;15.86;59.57
49489;SHT31;35382;51.484;11.476;2022-07-29T02:31:33;15.87;59.87
49489;SHT31;35382;51.484;11.476;2022-07-29T02:33:15;15.83;59.41
49489;SHT31;35382;51.484;11.476;2022-07-29T02:34:58;15.79;59.61
49489;SHT31;35382;51.484;11.476;2022-07-29T02:36:41;15.79;59.68
49489;SHT31;35382;51.484;11.476;2022-07-29T02:38:23;15.82;59.73
49489;SHT31;35382;51.484;11.476;2022-07-29T02:40:24;15.78;60.02
49489;SHT31;35382;51.484;11.476;2022-07-29T02:42:08;15.75;60.04
49489;SHT31;35382;51.484;11.476;2022-07-29T02:43:55;15.85;59.80
49489;SHT31;35382;51.484;11.476;2022-07-29T02:45:37;15.85;59.98
49489;SHT31;35382;51.484;11.476;2022-07-29T02:47:40;15.70;60.23
49489;SHT31;35382;51.484;11.476;2022-07-29T02:51:23;15.76;59.96
49489;SHT31;35382;51.484;11.476;2022-07-29T02:53:09;15.75;60.07
49489;SHT31;35382;51.484;11.476;2022-07-29T02:55:02;15.76;59.80
49489;SHT31;35382;51.484;11.476;2022-07-29T02:59:26;15.66;60.46
49489;SHT31;35382;51.484;11.476;2022-07-29T03:01:12;15.67;60.24
49489;SHT31;35382;51.484;11.476;2022-07-29T03:02:56;15.61;60.44
49489;SHT31;35382;51.484;11.476;2022-07-29T03:04:40;15.56;60.88
49489;SHT31;35382;51.484;11.476;2022-07-29T03:06:25;15.51;60.65
49489;SHT31;35382;51.484;11.476;2022-07-29T03:08:09;15.65;60.61
49489;SHT31;35382;51.484;11.476;2022-07-29T03:09:51;15.61;60.48
49489;SHT31;35382;51.484;11.476;2022-07-29T03:11:34;15.59;60.76
49489;SHT31;35382;51.484;11.476;2022-07-29T03:13:15;15.59;60.62
49489;SHT31;35382;51.484;11.476;2022-07-29T03:14:57;15.62;60.72
49489;SHT31;35382;51.484;11.476;2022-07-29T03:16:40;15.69;60.36
49489;SHT31;35382;51.484;11.476;2022-07-29T03:18:21;15.66;60.52
49489;SHT31;35382;51.484;11.476;2022-07-29T03:20:02;15.66;60.23
49489;SHT31;35382;51.484;11.476;2022-07-29T03:21:44;15.56;60.56
49489;SHT31;35382;51.484;11.476;2022-07-29T03:23:25;15.59;60.82
49489;SHT31;35382;51.484;11.476;2022-07-29T03:25:12;15.55;61.02
49489;SHT31;35382;51.484;11.476;2022-07-29T03:26:54;15.58;60.97
49489;SHT31;35382;51.484;11.476;2022-07-29T03:28:35;15.62;60.83
49489;SHT31;35382;51.484;11.476;2022-07-29T03:30:16;15.59;61.06
49489;SHT31;35382;51.484;11.476;2022-07-29T03:31:57;15.59;61.04
49489;SHT31;35382;51.484;11.476;2022-07-29T03:33:38;15.55;61.37
49489;SHT31;35382;51.484;11.476;2022-07-29T03:35:19;15.41;61.18
49489;SHT31;35382;51.484;11.476;2022-07-29T03:37:00;15.45;61.57
49489;SHT31;35382;51.484;11.476;2022-07-29T03:38:43;15.41;61.29
49489;SHT31;35382;51.484;11.476;2022-07-29T03:40:32;15.45;61.59
49489;SHT31;35382;51.484;11.476;2022-07-29T03:42:16;15.38;61.72
49489;SHT31;35382;51.484;11.476;2022-07-29T03:43:59;15.39;61.80
49489;SHT31;35382;51.484;11.476;2022-07-29T03:45:44;15.43;61.74
49489;SHT31;35382;51.484;11.476;2022-07-29T03:47:28;15.46;61.56
49489;SHT31;35382;51.484;11.476;2022-07-29T03:49:11;15.41;61.67
49489;SHT31;35382;51.484;11.476;2022-07-29T03:50:52;15.51;61.42
49489;SHT31;35382;51.484;11.476;2022-07-29T03:52:33;15.39;62.01
49489;SHT31;35382;51.484;11.476;2022-07-29T03:54:15;15.41;61.96
49489;SHT31;35382;51.484;11.476;2022-07-29T03:55:58;15.38;61.74
49489;SHT31;35382;51.484;11.476;2022-07-29T03:57:40;15.41;61.73
49489;SHT31;35382;51.484;11.476;2022-07-29T03:59:22;15.51;61.64
49489;SHT31;35382;51.484;11.476;2022-07-29T04:01:03;15.43;61.64
49489;SHT31;35382;51.484;11.476;2022-07-29T04:02:44;15.36;61.71
49489;SHT31;35382;51.484;11.476;2022-07-29T04:04:29;15.38;61.74
49489;SHT31;35382;51.484;11.476;2022-07-29T04:06:12;15.41;61.99
49489;SHT31;35382;51.484;11.476;2022-07-29T04:07:53;15.38;61.95
49489;SHT31;35382;51.484;11.476;2022-07-29T04:09:34;15.38;62.01
49489;SHT31;35382;51.484;11.476;2022-07-29T04:11:15;15.39;61.64
49489;SHT31;35382;51.484;11.476;2022-07-29T04:12:56;15.39;62.06
49489;SHT31;35382;51.484;11.476;2022-07-29T04:14:37;15.42;62.17
49489;SHT31;35382;51.484;11.476;2022-07-29T04:16:18;15.42;62.02
49489;SHT31;35382;51.484;11.476;2022-07-29T04:17:59;15.49;61.82
49489;SHT31;35382;51.484;11.476;2022-07-29T04:19:40;15.49;61.84
49489;SHT31;35382;51.484;11.476;2022-07-29T04:21:21;15.43;62.21
49489;SHT31;35382;51.484;11.476;2022-07-29T04:23:02;15.52;61.68
49489;SHT31;35382;51.484;11.476;2022-07-29T04:24:42;15.51;61.58
49489;SHT31;35382;51.484;11.476;2022-07-29T04:26:23;15.52;61.61
49489;SHT31;35382;51.484;11.476;2022-07-29T04:28:05;15.56;61.70
49489;SHT31;35382;51.484;11.476;2022-07-29T04:29:46;15.56;61.88
49489;SHT31;35382;51.484;11.476;2022-07-29T04:31:27;15.51;61.69
49489;SHT31;35382;51.484;11.476;2022-07-29T04:33:08;15.55;61.88
49489;SHT31;35382;51.484;11.476;2022-07-29T04:34:49;15.72;61.92
49489;SHT31;35382;51.484;11.476;2022-07-29T04:36:30;15.76;61.43
49489;SHT31;35382;51.484;11.476;2022-07-29T04:38:11;15.73;61.59
49489;SHT31;35382;51.484;11.476;2022-07-29T04:39:52;15.78;61.76
49489;SHT31;35382;51.484;11.476;2022-07-29T04:41:33;15.76;61.16
49489;SHT31;35382;51.484;11.476;2022-07-29T04:43:15;15.92;61.74
49489;SHT31;35382;51.484;11.476;2022-07-29T04:44:56;15.85;61.36
49489;SHT31;35382;51.484;11.476;2022-07-29T04:46:37;15.90;61.81
49489;SHT31;35382;51.484;11.476;2022-07-29T04:48:18;15.86;61.99
49489;SHT31;35382;51.484;11.476;2022-07-29T04:49:59;15.89;61.79
49489;SHT31;35382;51.484;11.476;2022-07-29T04:51:39;15.85;61.54
49489;SHT31;35382;51.484;11.476;2022-07-29T04:53:20;15.89;61.76
49489;SHT31;35382;51.484;11.476;2022-07-29T04:55:03;15.92;61.42
49489;SHT31;35382;51.484;11.476;2022-07-29T04:56:44;15.87;61.39
49489;SHT31;35382;51.484;11.476;2022-07-29T04:58:26;15.89;61.54
49489;SHT31;35382;51.484;11.476;2022-07-29T05:00:08;15.90;61.29
49489;SHT31;35382;51.484;11.476;2022-07-29T05:01:49;15.87;62.43
49489;SHT31;35382;51.484;11.476;2022-07-29T05:03:30;15.89;61.97
49489;SHT31;35382;51.484;11.476;2022-07-29T05:05:11;15.97;61.74
49489;SHT31;35382;51.484;11.476;2022-07-29T05:06:52;15.92;62.07
49489;SHT31;35382;51.484;11.476;2022-07-29T05:08:33;15.93;62.28
49489;SHT31;35382;51.484;11.476;2022-07-29T05:10:14;15.90;61.94
49489;SHT31;35382;51.484;11.476;2022-07-29T05:11:55;16.03;61.81
49489;SHT31;35382;51.484;11.476;2022-07-29T05:13:36;16.06;61.79
49489;SHT31;35382;51.484;11.476;2022-07-29T05:15:17;16.17;61.57
49489;SHT31;35382;51.484;11.476;2022-07-29T05:16:58;16.23;61.37
49489;SHT31;35382;51.484;11.476;2022-07-29T05:18:39;16.30;61.39
49489;SHT31;35382;51.484;11.476;2022-07-29T05:20:20;16.40;60.98
49489;SHT31;35382;51.484;11.476;2022-07-29T05:22:06;16.60;60.57
49489;SHT31;35382;51.484;11.476;2022-07-29T05:23:47;16.50;60.21
49489;SHT31;35382;51.484;11.476;2022-07-29T05:25:29;16.57;61.59
49489;SHT31;35382;51.484;11.476;2022-07-29T05:27:10;16.51;61.36
49489;SHT31;35382;51.484;11.476;2022-07-29T05:28:50;16.57;61.37
49489;SHT31;35382;51.484;11.476;2022-07-29T05:30:31;16.50;60.55
49489;SHT31;35382;51.484;11.476;2022-07-29T05:32:12;16.49;60.43
49489;SHT31;35382;51.484;11.476;2022-07-29T05:33:53;16.44;61.34
49489;SHT31;35382;51.484;11.476;2022-07-29T05:35:34;16.51;60.75
49489;SHT31;35382;51.484;11.476;2022-07-29T05:37:19;16.44;61.47
49489;SHT31;35382;51.484;11.476;2022-07-29T05:39:00;16.43;61.70
49489;SHT31;35382;51.484;11.476;2022-07-29T05:40:41;16.43;61.04
49489;SHT31;35382;51.484;11.476;2022-07-29T05:42:22;16.37;61.35
49489;SHT31;35382;51.484;11.476;2022-07-29T05:44:03;16.49;61.10
49489;SHT31;35382;51.484;11.476;2022-07-29T05:45:44;16.49;60.99
49489;SHT31;35382;51.484;11.476;2022-07-29T05:47:25;16.60;60.39
49489;SHT31;35382;51.484;11.476;2022-07-29T05:49:06;16.53;60.40
49489;SHT31;35382;51.484;11.476;2022-07-29T05:50:47;16.65;60.59
49489;SHT31;35382;51.484;11.476;2022-07-29T05:52:28;16.71;61.49
49489;SHT31;35382;51.484;11.476;2022-07-29T05:54:09;16.80;61.21
49489;SHT31;35382;51.484;11.476;2022-07-29T05:55:51;16.91;61.07
49489;SHT31;35382;51.484;11.476;2022-07-29T05:57:32;16.94;61.13
49489;SHT31;35382;51.484;11.476;2022-07-29T05:59:13;16.91;60.65
49489;SHT31;35382;51.484;11.476;2022-07-29T06:00:54;17.10;60.55
49489;SHT31;35382;51.484;11.476;2022-07-29T06:02:39;17.08;60.46
49489;SHT31;35382;51.484;11.476;2022-07-29T06:04:20;17.01;60.45
49489;SHT31;35382;51.484;11.476;2022-07-29T06:06:01;17.17;60.24
49489;SHT31;35382;51.484;11.476;2022-07-29T06:07:42;17.18;59.44
49489;SHT31;35382;51.484;11.476;2022-07-29T06:09:23;17.28;59.45
49489;SHT31;35382;51.484;11.476;2022-07-29T06:11:04;17.31;60.45
49489;SHT31;35382;51.484;11.476;2022-07-29T06:12:45;17.29;59.14
49489;SHT31;35382;51.484;11.476;2022-07-29T06:14:26;17.28;59.12
49489;SHT31;35382;51.484;11.476;2022-07-29T06:16:08;17.27;59.74
49489;SHT31;35382;51.484;11.476;2022-07-29T06:17:49;17.24;58.99
49489;SHT31;35382;51.484;11.476;2022-07-29T06:19:30;17.35;58.61
49489;SHT31;35382;51.484;11.476;2022-07-29T06:21:11;17.41;58.84
49489;SHT31;35382;51.484;11.476;2022-07-29T06:22:52;17.45;59.08
49489;SHT31;35382;51.484;11.476;2022-07-29T06:24:33;17.45;59.29
49489;SHT31;35382;51.484;11.476;2022-07-29T06:26:14;17.49;59.76
49489;SHT31;35382;51.484;11.476;2022-07-29T06:27:55;17.56;59.55
49489;SHT31;35382;51.484;11.476;2022-07-29T06:29:36;17.55;59.58
49489;SHT31;35382;51.484;11.476;2022-07-29T06:31:17;17.56;59.24
49489;SHT31;35382;51.484;11.476;2022-07-29T06:32:58;17.55;59.04
49489;SHT31;35382;51.484;11.476;2022-07-29T06:34:39;17.63;59.24
49489;SHT31;35382;51.484;11.476;2022-07-29T06:36:20;17.58;59.67
49489;SHT31;35382;51.484;11.476;2022-07-29T06:38:02;17.63;59.89
49489;SHT31;35382;51.484;11.476;2022-07-29T06:39:44;17.68;59.49
49489;SHT31;35382;51.484;11.476;2022-07-29T06:41:24;17.55;59.29
49489;SHT31;35382;51.484;11.476;2022-07-29T06:43:06;17.63;59.39
49489;SHT31;35382;51.484;11.476;2022-07-29T06:44:47;17.55;59.98
49489;SHT31;35382;51.484;11.476;2022-07-29T06:46:28;17.52;59.50
49489;SHT31;35382;51.484;11.476;2022-07-29T06:48:09;17.45;58.78
49489;SHT31;35382;51.484;11.476;2022-07-29T06:49:50;17.71;58.97
49489;SHT31;35382;51.484;11.476;2022-07-29T06:51:31;17.87;59.40
49489;SHT31;35382;51.484;11.476;2022-07-29T06:53:12;17.92;57.01
49489;SHT31;35382;51.484;11.476;2022-07-29T06:54:53;18.16;57.95
49489;SHT31;35382;51.484;11.476;2022-07-29T06:56:35;18.57;56.37
49489;SHT31;35382;51.484;11.476;2022-07-29T06:58:18;18.59;55.74
49489;SHT31;35382;51.484;11.476;2022-07-29T07:00:09;18.40;55.99
49489;SHT31;35382;51.484;11.476;2022-07-29T07:01:50;18.23;56.93
49489;SHT31;35382;51.484;11.476;2022-07-29T07:03:32;18.20;55.94
49489;SHT31;35382;51.484;11.476;2022-07-29T07:05:13;18.13;56.06
49489;SHT31;35382;51.484;11.476;2022-07-29T07:06:54;17.92;57.23
49489;SHT31;35382;51.484;11.476;2022-07-29T07:08:36;18.06;57.15
49489;SHT31;35382;51.484;11.476;2022-07-29T07:10:17;18.61;55.34
49489;SHT31;35382;51.484;11.476;2022-07-29T07:11:58;18.43;54.93
49489;SHT31;35382;51.484;11.476;2022-07-29T07:13:39;18.83;55.34
49489;SHT31;35382;51.484;11.476;2022-07-29T07:15:20;19.47;54.81
49489;SHT31;35382;51.484;11.476;2022-07-29T07:17:04;19.55;53.92
49489;SHT31;35382;51.484;11.476;2022-07-29T07:18:45;19.72;52.59
49489;SHT31;35382;51.484;11.476;2022-07-29T07:20:26;20.02;52.91
49489;SHT31;35382;51.484;11.476;2022-07-29T07:22:07;20.08;51.54
49489;SHT31;35382;51.484;11.476;2022-07-29T07:23:47;20.39;51.95
49489;SHT31;35382;51.484;11.476;2022-07-29T07:25:28;20.46;52.65
49489;SHT31;35382;51.484;11.476;2022-07-29T07:27:09;20.46;51.94
49489;SHT31;35382;51.484;11.476;2022-07-29T07:28:50;20.50;51.77
49489;SHT31;35382;51.484;11.476;2022-07-29T07:30:31;20.30;51.38
49489;SHT31;35382;51.484;11.476;2022-07-29T07:32:12;20.33;52.14
49489;SHT31;35382;51.484;11.476;2022-07-29T07:34:00;20.18;52.16
49489;SHT31;35382;51.484;11.476;2022-07-29T07:35:41;20.26;50.77
49489;SHT31;35382;51.484;11.476;2022-07-29T07:37:22;20.96;52.39
49489;SHT31;35382;51.484;11.476;2022-07-29T07:39:05;21.07;49.51
49489;SHT31;35382;51.484;11.476;2022-07-29T07:40:46;21.12;49.42
49489;SHT31;35382;51.484;11.476;2022-07-29T07:42:27;21.38;49.94
49489;SHT31;35382;51.484;11.476;2022-07-29T07:44:08;21.28;48.42
49489;SHT31;35382;51.484;11.476;2022-07-29T07:45:49;20.86;49.16
49489;SHT31;35382;51.484;11.476;2022-07-29T07:47:30;21.08;48.65
49489;SHT31;35382;51.484;11.476;2022-07-29T07:49:11;21.41;49.98
49489;SHT31;35382;51.484;11.476;2022-07-29T07:50:52;21.38;48.00
49489;SHT31;35382;51.484;11.476;2022-07-29T07:52:33;21.52;48.02
49489;SHT31;35382;51.484;11.476;2022-07-29T07:54:13;21.95;49.00
49489;SHT31;35382;51.484;11.476;2022-07-29T07:55:55;22.12;48.37
49489;SHT31;35382;51.484;11.476;2022-07-29T07:57:35;22.38;47.32
49489;SHT31;35382;51.484;11.476;2022-07-29T07:59:16;22.64;47.86
49489;SHT31;35382;51.484;11.476;2022-07-29T08:00:57;22.87;46.29
49489;SHT31;35382;51.484;11.476;2022-07-29T08:02:39;23.23;46.92
49489;SHT31;35382;51.484;11.476;2022-07-29T08:04:20;23.18;47.38
49489;SHT31;35382;51.484;11.476;2022-07-29T08:06:02;22.55;47.16
49489;SHT31;35382;51.484;11.476;2022-07-29T08:07:45;22.46;47.13
49489;SHT31;35382;51.484;11.476;2022-07-29T08:09:27;22.16;46.30
49489;SHT31;35382;51.484;11.476;2022-07-29T08:11:08;21.96;47.72
49489;SHT31;35382;51.484;11.476;2022-07-29T08:12:49;22.46;47.56
49489;SHT31;35382;51.484;11.476;2022-07-29T08:14:30;22.80;47.00
49489;SHT31;35382;51.484;11.476;2022-07-29T08:16:11;23.54;46.70
49489;SHT31;35382;51.484;11.476;2022-07-29T08:17:53;23.24;44.23
49489;SHT31;35382;51.484;11.476;2022-07-29T08:19:33;23.31;46.33
49489;SHT31;35382;51.484;11.476;2022-07-29T08:21:15;23.48;45.05
49489;SHT31;35382;51.484;11.476;2022-07-29T08:22:56;23.65;43.06
49489;SHT31;35382;51.484;11.476;2022-07-29T08:24:37;23.79;45.33
49489;SHT31;35382;51.484;11.476;2022-07-29T08:26:23;24.06;44.03
49489;SHT31;35382;51.484;11.476;2022-07-29T08:28:05;24.04;44.00
49489;SHT31;35382;51.484;11.476;2022-07-29T08:29:46;24.00;43.30
49489;SHT31;35382;51.484;11.476;2022-07-29T08:31:27;23.58;44.90
49489;SHT31;35382;51.484;11.476;2022-07-29T08:33:08;24.14;44.40
49489;SHT31;35382;51.484;11.476;2022-07-29T08:34:49;24.00;43.99
49489;SHT31;35382;51.484;11.476;2022-07-29T08:36:31;24.24;43.65
49489;SHT31;35382;51.484;11.476;2022-07-29T08:38:12;24.21;45.49
49489;SHT31;35382;51.484;11.476;2022-07-29T08:39:53;24.38;44.49
49489;SHT31;35382;51.484;11.476;2022-07-29T08:41:34;24.38;43.10
49489;SHT31;35382;51.484;11.476;2022-07-29T08:43:15;24.02;44.28
49489;SHT31;35382;51.484;11.476;2022-07-29T08:44:57;23.84;45.70
49489;SHT31;35382;51.484;11.476;2022-07-29T08:46:38;23.60;45.22
49489;SHT31;35382;51.484;11.476;2022-07-29T08:48:23;23.62;44.76
49489;SHT31;35382;51.484;11.476;2022-07-29T08:50:04;23.64;45.54
49489;SHT31;35382;51.484;11.476;2022-07-29T08:51:45;23.98;44.89
49489;SHT31;35382;51.484;11.476;2022-07-29T08:53:27;24.22;42.84
49489;SHT31;35382;51.484;11.476;2022-07-29T08:55:09;24.63;43.25
49489;SHT31;35382;51.484;11.476;2022-07-29T08:56:51;25.26;42.28
49489;SHT31;35382;51.484;11.476;2022-07-29T08:58:33;25.26;41.37
49489;SHT31;35382;51.484;11.476;2022-07-29T09:00:17;25.02;40.12
49489;SHT31;35382;51.484;11.476;2022-07-29T09:01:58;24.93;43.00
49489;SHT31;35382;51.484;11.476;2022-07-29T09:03:41;24.58;42.58
49489;SHT31;35382;51.484;11.476;2022-07-29T09:05:24;24.21;43.92
49489;SHT31;35382;51.484;11.476;2022-07-29T09:07:06;23.86;43.40
49489;SHT31;35382;51.484;11.476;2022-07-29T09:08:48;23.65;43.50
49489;SHT31;35382;51.484;11.476;2022-07-29T09:10:29;23.61;44.75
49489;SHT31;35382;51.484;11.476;2022-07-29T09:12:11;23.54;44.61
49489;SHT31;35382;51.484;11.476;2022-07-29T09:13:52;23.33;45.95
49489;SHT31;35382;51.484;11.476;2022-07-29T09:15:33;23.28;46.01
49489;SHT31;35382;51.484;11.476;2022-07-29T09:17:14;23.11;45.42
49489;SHT31;35382;51.484;11.476;2022-07-29T09:18:57;23.11;45.72
49489;SHT31;35382;51.484;11.476;2022-07-29T09:20:38;22.96;44.96
49489;SHT31;35382;51.484;11.476;2022-07-29T09:22:40;23.13;45.75
49489;SHT31;35382;51.484;11.476;2022-07-29T09:24:21;23.47;45.50
49489;SHT31;35382;51.484;11.476;2022-07-29T09:26:05;23.93;45.37
49489;SHT31;35382;51.484;11.476;2022-07-29T09:27:49;24.00;44.03
49489;SHT31;35382;51.484;11.476;2022-07-29T09:29:30;23.70;43.48
49489;SHT31;35382;51.484;11.476;2022-07-29T09:31:12;23.93;43.43
49489;SHT31;35382;51.484;11.476;2022-07-29T09:33:01;24.42;43.99
49489;SHT31;35382;51.484;11.476;2022-07-29T09:34:43;24.47;43.49
49489;SHT31;35382;51.484;11.476;2022-07-29T09:36:24;24.72;43.33
49489;SHT31;35382;51.484;11.476;2022-07-29T09:38:12;25.31;42.03
49489;SHT31;35382;51.484;11.476;2022-07-29T09:39:53;25.12;42.52
49489;SHT31;35382;51.484;11.476;2022-07-29T09:41:49;25.20;42.22
49489;SHT31;35382;51.484;11.476;2022-07-29T09:43:30;25.31;42.02
49489;SHT31;35382;51.484;11.476;2022-07-29T09:45:12;25.49;42.25
49489;SHT31;35382;51.484;11.476;2022-07-29T09:47:00;25.77;40.67
49489;SHT31;35382;51.484;11.476;2022-07-29T09:49:08;25.88;41.86
49489;SHT31;35382;51.484;11.476;2022-07-29T09:50:50;26.20;40.71
49489;SHT31;35382;51.484;11.476;2022-07-29T09:52:31;26.20;40.58
49489;SHT31;35382;51.484;11.476;2022-07-29T09:54:25;26.35;40.54
49489;SHT31;35382;51.484;11.476;2022-07-29T09:56:06;26.24;40.01
49489;SHT31;35382;51.484;11.476;2022-07-29T09:57:47;25.74;40.95
49489;SHT31;35382;51.484;11.476;2022-07-29T09:59:28;26.24;41.59
49489;SHT31;35382;51.484;11.476;2022-07-29T10:01:09;26.31;40.75
49489;SHT31;35382;51.484;11.476;2022-07-29T10:02:50;26.13;40.73
49489;SHT31;35382;51.484;11.476;2022-07-29T10:04:38;26.61;38.73
49489;SHT31;35382;51.484;11.476;2022-07-29T10:06:20;25.94;37.76
49489;SHT31;35382;51.484;11.476;2022-07-29T10:08:01;26.05;38.96
49489;SHT31;35382;51.484;11.476;2022-07-29T10:09:52;25.20;39.36
49489;SHT31;35382;51.484;11.476;2022-07-29T10:11:33;25.16;40.15
49489;SHT31;35382;51.484;11.476;2022-07-29T10:13:15;25.40;40.01
49489;SHT31;35382;51.484;11.476;2022-07-29T10:14:56;26.09;40.31
49489;SHT31;35382;51.484;11.476;2022-07-29T10:16:37;26.07;39.78
49489;SHT31;35382;51.484;11.476;2022-07-29T10:18:19;25.83;39.03
49489;SHT31;35382;51.484;11.476;2022-07-29T10:20:00;25.66;39.91
49489;SHT31;35382;51.484;11.476;2022-07-29T10:21:41;25.98;40.33
49489;SHT31;35382;51.484;11.476;2022-07-29T10:23:24;26.51;39.44
49489;SHT31;35382;51.484;11.476;2022-07-29T10:25:05;26.55;38.62
49489;SHT31;35382;51.484;11.476;2022-07-29T10:26:47;26.51;37.48
49489;SHT31;35382;51.484;11.476;2022-07-29T10:28:30;26.78;39.97
49489;SHT31;35382;51.484;11.476;2022-07-29T10:30:13;26.61;37.55
49489;SHT31;35382;51.484;11.476;2022-07-29T10:36:07;25.78;39.78
49489;SHT31;35382;51.484;11.476;2022-07-29T10:40:18;26.58;37.53
49489;SHT31;35382;51.484;11.476;2022-07-29T10:42:23;26.85;36.54
49489;SHT31;35382;51.484;11.476;2022-07-29T10:44:09;26.99;38.90
49489;SHT31;35382;51.484;11.476;2022-07-29T10:45:57;26.75;38.09
49489;SHT31;35382;51.484;11.476;2022-07-29T10:47:38;27.13;36.95
49489;SHT31;35382;51.484;11.476;2022-07-29T10:49:24;26.71;35.24
49489;SHT31;35382;51.484;11.476;2022-07-29T10:51:06;26.71;35.33
49489;SHT31;35382;51.484;11.476;2022-07-29T10:56:27;26.20;36.01
49489;SHT31;35382;51.484;11.476;2022-07-29T10:58:18;26.00;36.32
49489;SHT31;35382;51.484;11.476;2022-07-29T11:01:46;26.13;36.45
49489;SHT31;35382;51.484;11.476;2022-07-29T11:03:44;26.11;36.02